Anaktuvuk, Alaska
Current Conditions -  °F | °C
As of 12:36 PM on Wednesday 17 Dec 2014 (Local Time) from PAKP Reporting Station
Overcast Overcast  
Wind Chill: -26°   Ceiling: 3900
Heat Index: -9°   Visibility: 3mi
Dew Point: -20°   Wind: 8mph
Humidity: 59%   Direction: 50°NE
Pressure: 29.49"   Gusts: NA
Location:  68.565°N, 152.085°W
Report Text: PAKP 172136Z AUTO 05007KT 3SM OVC039 M23/M29 A2949 RMK AO1
Loading
Personal Weather Stations






























Interactive Weather Map New forecast layout! Learn more

10-Day Weather Forecast

Advertisements
Track Severe Weather on mobile